Weather History for Brownwood, TX

Change the Weather History Date:

Wednesday, December 11, 2013

  Actual Average (KABI) Record (KABI)
Temperature  
Mean Temperature 37 °F 46 °F  
Max Temperature 48 °F 57 °F 83 °F (1939)
Min Temperature 26 °F 34 °F 18 °F (1932)
Degree Days  
Heating Degree Days 28 19  
Month to date heating degree days 199  
Since 1 July heating degree days 632  
Cooling Degree Days 0 0  
Month to date cooling degree days 0  
Year to date cooling degree days 2408  
Moisture  
Dew Point 26 °F    
Average Humidity 70    
Maximum Humidity 93    
Minimum Humidity 43    
Precipitation  
Precipitation 0.00 in 0.04 in 1.58 in (1991)
Month to date precipitation 0.44  
Year to date precipitation 24.03  
Sea Level Pressure  
Sea Level Pressure 30.41 in    
Wind  
Wind Speed 4 mph (NNW)    
Max Wind Speed 14 mph    
Max Gust Speed -    
Visibility 10 miles    
Events      
T = Trace of Precipitation, MM = Missing Value Source: NWS Daily Summary

Daily Weather History Graph

Daily Weather History Graph

Search for Another Location

Airport:

Trip Planner

Search our weather history database for the weather conditions in past years. The results will help you decide how hot, cold, wet, or windy it might be!

Date:

Astronomy

Dec. 11, 2013 Rise Set
Actual Time 7:25 AM CST 5:32 PM CST
Civil Twilight 6:59 AM CST 5:59 PM CST
Nautical Twilight 6:28 AM CST 6:29 PM CST
Astronomical Twilight 5:58 AM CST 6:59 PM CST
Moon 1:52 PM CST (12/11) 2:05 AM CST (12/11)
Length of Visible Light 11h 00m
Length of Day
10h 06m
Waxing Gibbous, 72% of the Moon is Illuminated
Dec 11
Waxing Gibbous
Dec 17
Full
Dec 25
Last Quarter
Jan 1
New
Jan 7
First Quarter

Hourly Weather History & Observations

Time (CST) Temp. Windchill Dew Point Humidity Pressure Visibility Wind Dir Wind Speed Gust Speed Precip Events Conditions
12:15 AM 28.4 °F - 24.8 °F 86% 30.29 in 10.0 mi Calm Calm - N/A   Unknown
12:35 AM 26.6 °F 21.2 °F 24.8 °F 93% 30.29 in 10.0 mi South 4.6 mph - N/A   Unknown
12:55 AM 28.4 °F 24.6 °F 24.8 °F 86% 30.29 in 10.0 mi SE 3.5 mph - N/A   Unknown
1:15 AM 28.4 °F 24.6 °F 23.0 °F 80% 30.29 in 10.0 mi SSE 3.5 mph - N/A   Unknown
1:35 AM 28.4 °F - 23.0 °F 80% 30.29 in 10.0 mi Calm Calm - N/A   Unknown
1:55 AM 28.4 °F 23.3 °F 23.0 °F 80% 30.29 in 10.0 mi South 4.6 mph - N/A   Unknown
2:15 AM 28.4 °F 22.2 °F 23.0 °F 80% 30.29 in 10.0 mi SSE 5.8 mph - N/A   Unknown
2:35 AM 30.2 °F 25.4 °F 23.0 °F 75% 30.29 in 10.0 mi SSE 4.6 mph - N/A   Unknown
2:55 AM 30.2 °F 26.7 °F 24.8 °F 80% 30.28 in 10.0 mi South 3.5 mph - N/A   Unknown
3:15 AM 28.4 °F 24.6 °F 24.8 °F 86% 30.29 in 10.0 mi South 3.5 mph - N/A   Unknown
3:35 AM 30.2 °F - 23.0 °F 75% 30.29 in 10.0 mi Calm Calm - N/A   Unknown
3:55 AM 28.4 °F - 24.8 °F 86% 30.29 in 10.0 mi Calm Calm - N/A   Unknown
4:15 AM 28.4 °F 24.6 °F 24.8 °F 86% 30.29 in 10.0 mi East 3.5 mph - N/A   Unknown
4:35 AM 30.2 °F - 24.8 °F 80% 30.29 in 10.0 mi Calm Calm - N/A   Unknown
4:55 AM 30.2 °F - 24.8 °F 80% 30.30 in 10.0 mi Calm Calm - N/A   Unknown
5:15 AM 30.2 °F 26.7 °F 26.6 °F 86% 30.29 in 10.0 mi South 3.5 mph - N/A   Unknown
5:35 AM 30.2 °F 26.7 °F 24.8 °F 80% 30.30 in 10.0 mi East 3.5 mph - N/A   Unknown
5:55 AM 30.2 °F 25.4 °F 24.8 °F 80% 30.30 in 10.0 mi SSE 4.6 mph - N/A   Unknown
6:15 AM 30.2 °F 26.7 °F 24.8 °F 80% 30.30 in 10.0 mi SE 3.5 mph - N/A   Unknown
6:35 AM 30.2 °F - 24.8 °F 80% 30.31 in 10.0 mi Calm Calm - N/A   Unknown
6:55 AM 30.2 °F - 24.8 °F 80% 30.32 in 10.0 mi Calm Calm - N/A   Unknown
7:15 AM 28.4 °F - 24.8 °F 86% 30.33 in 10.0 mi Calm Calm - N/A   Unknown
7:35 AM 28.4 °F 24.6 °F 24.8 °F 86% 30.34 in 10.0 mi SE 3.5 mph - N/A   Unknown
7:55 AM 28.4 °F 23.3 °F 26.6 °F 93% 30.34 in 10.0 mi South 4.6 mph - N/A   Unknown
8:15 AM 32.0 °F 28.7 °F 24.8 °F 75% 30.35 in 10.0 mi South 3.5 mph - N/A   Unknown
8:35 AM 32.0 °F 26.4 °F 24.8 °F 75% 30.36 in 10.0 mi South 5.8 mph - N/A   Unknown
8:55 AM 32.0 °F - 26.6 °F 80% 30.37 in 10.0 mi Calm Calm - N/A   Unknown
9:15 AM 32.0 °F - 26.6 °F 80% 30.38 in 10.0 mi Calm Calm - N/A   Unknown
9:35 AM 35.6 °F - 26.6 °F 70% 30.40 in 10.0 mi Calm Calm - N/A   Unknown
9:55 AM 37.4 °F - 26.6 °F 65% 30.40 in 10.0 mi Calm Calm - N/A   Unknown
10:15 AM 37.4 °F - 28.4 °F 70% 30.41 in 10.0 mi Calm Calm - N/A   Unknown
10:35 AM 39.2 °F - 26.6 °F 61% 30.41 in 10.0 mi Calm Calm - N/A   Unknown
10:55 AM 41.0 °F - 28.4 °F 61% 30.41 in 10.0 mi Calm Calm - N/A   Unknown
11:15 AM 42.8 °F - 26.6 °F 53% 30.41 in 10.0 mi Calm Calm - N/A   Unknown
11:35 AM 44.6 °F - 26.6 °F 49% 30.40 in 10.0 mi Calm Calm - N/A   Unknown
11:55 AM 44.6 °F 43.1 °F 26.6 °F 49% 30.40 in 10.0 mi NW 3.5 mph - N/A   Unknown
12:15 PM 46.4 °F 42.9 °F 26.6 °F 46% 30.39 in 10.0 mi North 6.9 mph - N/A   Unknown
12:35 PM 46.4 °F 42.4 °F 26.6 °F 46% 30.40 in 10.0 mi NNW 8.1 mph - N/A   Unknown
12:55 PM 48.2 °F - 26.6 °F 43% 30.39 in 10.0 mi NNW 6.9 mph - N/A   Unknown
1:15 PM 48.2 °F - 26.6 °F 43% 30.38 in 10.0 mi NNW 5.8 mph - N/A   Unknown
1:35 PM 48.2 °F - 26.6 °F 43% 30.38 in 10.0 mi North 10.4 mph - N/A   Unknown
1:55 PM 48.2 °F - 26.6 °F 43% 30.39 in 10.0 mi North 6.9 mph - N/A   Unknown
2:15 PM 48.2 °F - 26.6 °F 43% 30.39 in 10.0 mi NNE 9.2 mph - N/A   Unknown
2:35 PM 48.2 °F - 26.6 °F 43% 30.39 in 10.0 mi North 12.7 mph - N/A   Unknown
2:55 PM 46.4 °F 40.4 °F 26.6 °F 46% 30.41 in 10.0 mi North 13.8 mph - N/A   Unknown
3:15 PM 46.4 °F 40.4 °F 28.4 °F 50% 30.42 in 10.0 mi North 13.8 mph - N/A   Unknown
3:35 PM 46.4 °F 41.5 °F 28.4 °F 50% 30.42 in 10.0 mi North 10.4 mph - N/A   Unknown
3:55 PM 44.6 °F 38.8 °F 28.4 °F 53% 30.43 in 10.0 mi NNW 11.5 mph - N/A   Unknown
4:15 PM 42.8 °F 37.0 °F 28.4 °F 57% 30.44 in 10.0 mi NNW 10.4 mph - N/A   Unknown
4:35 PM 41.0 °F 33.9 °F 28.4 °F 61% 30.45 in 10.0 mi NNW 12.7 mph - N/A   Unknown
4:55 PM 41.0 °F 34.7 °F 28.4 °F 61% 30.47 in 10.0 mi North 10.4 mph - N/A   Unknown
5:15 PM 39.2 °F 32.0 °F 28.4 °F 65% 30.47 in 10.0 mi North 11.5 mph - N/A   Unknown
5:35 PM 39.2 °F 33.0 °F 28.4 °F 65% 30.49 in 10.0 mi North 9.2 mph - N/A   Unknown
5:55 PM 37.4 °F 31.4 °F 28.4 °F 70% 30.49 in 10.0 mi North 8.1 mph - N/A   Unknown
6:15 PM 37.4 °F 32.1 °F 26.6 °F 65% 30.50 in 10.0 mi North 6.9 mph - N/A   Unknown
6:35 PM 37.4 °F 32.8 °F 26.6 °F 65% 30.51 in 10.0 mi North 5.8 mph - N/A   Unknown
6:55 PM 37.4 °F 33.8 °F 26.6 °F 65% 30.52 in 10.0 mi North 4.6 mph - N/A   Unknown
7:15 PM 35.6 °F 31.7 °F 28.4 °F 75% 30.53 in 10.0 mi NNW 4.6 mph - N/A   Unknown
7:35 PM 35.6 °F 30.7 °F 28.4 °F 75% 30.54 in 10.0 mi NNW 5.8 mph - N/A   Unknown
7:55 PM 33.8 °F 27.7 °F 26.6 °F 75% 30.54 in 10.0 mi NNW 6.9 mph - N/A   Unknown
8:15 PM 33.8 °F 29.6 °F 26.6 °F 75% 30.54 in 10.0 mi North 4.6 mph - N/A   Unknown
8:35 PM 32.0 °F 27.5 °F 26.6 °F 80% 30.55 in 10.0 mi NNW 4.6 mph - N/A   Unknown
8:55 PM 32.0 °F 27.5 °F 26.6 °F 80% 30.55 in 10.0 mi NNW 4.6 mph - N/A   Unknown
9:15 PM 32.0 °F 27.5 °F 26.6 °F 80% 30.56 in 10.0 mi NW 4.6 mph - N/A   Unknown
9:35 PM 32.0 °F 27.5 °F 26.6 °F 80% 30.56 in 10.0 mi NW 4.6 mph - N/A   Unknown
9:55 PM 32.0 °F 28.7 °F 26.6 °F 80% 30.57 in 10.0 mi NW 3.5 mph - N/A   Unknown
10:15 PM 32.0 °F 27.5 °F 26.6 °F 80% 30.57 in 10.0 mi NW 4.6 mph - N/A   Unknown
10:35 PM 32.0 °F 27.5 °F 26.6 °F 80% 30.57 in 9.0 mi NNW 4.6 mph - N/A   Unknown
10:55 PM 32.0 °F 27.5 °F 26.6 °F 80% 30.58 in 8.0 mi NNW 4.6 mph - N/A   Unknown
11:15 PM 32.0 °F 26.4 °F 26.6 °F 80% 30.58 in 8.0 mi North 5.8 mph - N/A   Unknown
11:35 PM 32.0 °F 27.5 °F 26.6 °F 80% 30.57 in 8.0 mi North 4.6 mph - N/A   Unknown
11:55 PM 32.0 °F 26.4 °F 26.6 °F 80% 30.58 in 8.0 mi North 5.8 mph - N/A   Unknown